sensor_id;sensor_type;location;lat;lon;timestamp;pressure;altitude;pressure_sealevel;temperature;humidity
4528;BME280;62320;51.520;6.818;2024-01-25T00:09:20;102270.41;;;9.39;100.00
4528;BME280;62320;51.520;6.818;2024-01-25T00:19:21;102284.16;;;9.38;100.00
4528;BME280;62320;51.520;6.818;2024-01-25T00:29:23;102285.81;;;9.36;100.00
4528;BME280;62320;51.520;6.818;2024-01-25T00:39:24;102282.41;;;9.37;100.00
4528;BME280;62320;51.520;6.818;2024-01-25T00:49:26;102275.22;;;9.27;100.00
4528;BME280;62320;51.520;6.818;2024-01-25T00:59:28;102275.00;;;9.19;100.00
4528;BME280;62320;51.520;6.818;2024-01-25T01:09:30;102276.28;;;9.05;100.00
4528;BME280;62320;51.520;6.818;2024-01-25T01:19:31;102289.72;;;8.95;100.00
4528;BME280;62320;51.520;6.818;2024-01-25T01:29:33;102302.34;;;8.86;100.00
4528;BME280;62320;51.520;6.818;2024-01-25T01:39:34;102309.00;;;8.80;100.00
4528;BME280;62320;51.520;6.818;2024-01-25T01:49:36;102301.09;;;8.74;100.00
4528;BME280;62320;51.520;6.818;2024-01-25T01:59:38;102316.69;;;8.77;100.00
4528;BME280;62320;51.520;6.818;2024-01-25T02:09:39;102327.69;;;8.73;100.00
4528;BME280;62320;51.520;6.818;2024-01-25T02:19:41;102347.22;;;8.65;100.00
4528;BME280;62320;51.520;6.818;2024-01-25T02:29:42;102348.72;;;8.58;100.00
4528;BME280;62320;51.520;6.818;2024-01-25T02:39:44;102357.53;;;8.39;100.00
4528;BME280;62320;51.520;6.818;2024-01-25T02:49:46;102350.97;;;8.25;100.00
4528;BME280;62320;51.520;6.818;2024-01-25T02:59:47;102357.34;;;8.11;100.00
4528;BME280;62320;51.520;6.818;2024-01-25T03:09:49;102357.84;;;8.01;100.00
4528;BME280;62320;51.520;6.818;2024-01-25T03:19:51;102364.22;;;7.87;100.00
4528;BME280;62320;51.520;6.818;2024-01-25T03:29:52;102375.78;;;7.74;100.00
4528;BME280;62320;51.520;6.818;2024-01-25T03:39:54;102378.00;;;7.65;100.00
4528;BME280;62320;51.520;6.818;2024-01-25T03:49:55;102391.78;;;7.45;100.00
4528;BME280;62320;51.520;6.818;2024-01-25T03:59:57;102393.97;;;7.35;100.00
4528;BME280;62320;51.520;6.818;2024-01-25T04:09:58;102398.94;;;7.30;100.00
4528;BME280;62320;51.520;6.818;2024-01-25T04:20:00;102387.09;;;7.13;100.00
4528;BME280;62320;51.520;6.818;2024-01-25T04:30:02;102397.50;;;6.95;100.00
4528;BME280;62320;51.520;6.818;2024-01-25T04:40:05;102402.47;;;6.91;100.00
4528;BME280;62320;51.520;6.818;2024-01-25T04:50:07;102411.00;;;6.69;100.00
4528;BME280;62320;51.520;6.818;2024-01-25T05:00:10;102425.78;;;6.54;100.00
4528;BME280;62320;51.520;6.818;2024-01-25T05:10:11;102421.19;;;6.47;100.00
4528;BME280;62320;51.520;6.818;2024-01-25T05:20:13;102412.59;;;6.46;100.00
4528;BME280;62320;51.520;6.818;2024-01-25T05:30:17;102405.69;;;6.45;100.00
4528;BME280;62320;51.520;6.818;2024-01-25T05:40:18;102409.78;;;6.40;100.00
4528;BME280;62320;51.520;6.818;2024-01-25T05:50:20;102411.53;;;6.41;100.00
4528;BME280;62320;51.520;6.818;2024-01-25T06:00:22;102423.28;;;6.36;100.00
4528;BME280;62320;51.520;6.818;2024-01-25T06:10:24;102438.28;;;6.27;100.00
4528;BME280;62320;51.520;6.818;2024-01-25T06:20:26;102437.78;;;6.15;100.00
4528;BME280;62320;51.520;6.818;2024-01-25T06:30:27;102447.84;;;6.11;100.00
4528;BME280;62320;51.520;6.818;2024-01-25T06:40:29;102440.72;;;6.05;100.00
4528;BME280;62320;51.520;6.818;2024-01-25T06:50:30;102464.72;;;6.06;100.00
4528;BME280;62320;51.520;6.818;2024-01-25T07:00:32;102470.59;;;6.03;100.00
4528;BME280;62320;51.520;6.818;2024-01-25T07:10:34;102488.38;;;5.99;100.00
4528;BME280;62320;51.520;6.818;2024-01-25T07:20:36;102472.59;;;5.91;100.00
4528;BME280;62320;51.520;6.818;2024-01-25T07:30:38;102492.41;;;5.76;100.00
4528;BME280;62320;51.520;6.818;2024-01-25T07:40:39;102491.69;;;5.61;100.00
4528;BME280;62320;51.520;6.818;2024-01-25T07:50:41;102487.72;;;5.50;100.00
4528;BME280;62320;51.520;6.818;2024-01-25T08:00:43;102505.22;;;5.41;100.00
4528;BME280;62320;51.520;6.818;2024-01-25T08:10:46;102516.38;;;5.41;100.00
4528;BME280;62320;51.520;6.818;2024-01-25T08:20:48;102532.88;;;5.46;100.00
4528;BME280;62320;51.520;6.818;2024-01-25T08:30:50;102521.22;;;5.53;100.00
4528;BME280;62320;51.520;6.818;2024-01-25T08:40:52;102535.38;;;5.62;100.00
4528;BME280;62320;51.520;6.818;2024-01-25T08:50:53;102522.09;;;5.71;100.00
4528;BME280;62320;51.520;6.818;2024-01-25T09:00:56;102517.19;;;5.75;100.00
4528;BME280;62320;51.520;6.818;2024-01-25T09:10:57;102506.34;;;5.81;100.00
4528;BME280;62320;51.520;6.818;2024-01-25T09:20:59;102497.75;;;5.98;100.00
4528;BME280;62320;51.520;6.818;2024-01-25T09:31:01;102513.78;;;6.12;100.00
4528;BME280;62320;51.520;6.818;2024-01-25T09:41:03;102541.72;;;6.23;100.00
4528;BME280;62320;51.520;6.818;2024-01-25T09:51:05;102528.78;;;6.39;100.00
4528;BME280;62320;51.520;6.818;2024-01-25T10:01:12;102538.97;;;6.57;100.00
4528;BME280;62320;51.520;6.818;2024-01-25T10:11:14;102534.53;;;6.72;100.00
4528;BME280;62320;51.520;6.818;2024-01-25T10:21:16;102555.63;;;6.84;100.00
4528;BME280;62320;51.520;6.818;2024-01-25T10:31:22;102535.97;;;7.05;100.00
4528;BME280;62320;51.520;6.818;2024-01-25T10:41:24;102523.56;;;7.16;100.00
4528;BME280;62320;51.520;6.818;2024-01-25T10:51:29;102504.56;;;7.33;100.00
4528;BME280;62320;51.520;6.818;2024-01-25T11:01:33;102501.53;;;7.43;100.00
4528;BME280;62320;51.520;6.818;2024-01-25T11:11:35;102482.41;;;7.59;100.00
4528;BME280;62320;51.520;6.818;2024-01-25T11:21:45;102478.28;;;7.84;100.00
4528;BME280;62320;51.520;6.818;2024-01-25T11:31:48;102458.75;;;7.89;100.00
4528;BME280;62320;51.520;6.818;2024-01-25T11:41:51;102438.34;;;7.96;100.00
4528;BME280;62320;51.520;6.818;2024-01-25T11:51:53;102444.94;;;8.11;100.00
4528;BME280;62320;51.520;6.818;2024-01-25T12:01:55;102410.81;;;8.17;100.00
4528;BME280;62320;51.520;6.818;2024-01-25T12:11:56;102409.38;;;8.25;100.00
4528;BME280;62320;51.520;6.818;2024-01-25T12:21:58;102391.00;;;8.38;100.00
4528;BME280;62320;51.520;6.818;2024-01-25T12:31:59;102399.84;;;8.46;100.00
4528;BME280;62320;51.520;6.818;2024-01-25T12:42:01;102405.22;;;8.52;100.00
4528;BME280;62320;51.520;6.818;2024-01-25T12:52:03;102400.28;;;8.58;100.00
4528;BME280;62320;51.520;6.818;2024-01-25T13:02:07;102385.03;;;8.66;100.00
4528;BME280;62320;51.520;6.818;2024-01-25T13:12:09;102369.66;;;8.67;100.00
4528;BME280;62320;51.520;6.818;2024-01-25T13:22:11;102371.50;;;8.71;100.00
4528;BME280;62320;51.520;6.818;2024-01-25T13:32:12;102344.97;;;8.75;100.00
4528;BME280;62320;51.520;6.818;2024-01-25T13:42:14;102356.13;;;8.74;100.00
4528;BME280;62320;51.520;6.818;2024-01-25T13:52:19;102340.66;;;8.74;100.00
4528;BME280;62320;51.520;6.818;2024-01-25T14:02:21;102328.69;;;8.76;100.00
4528;BME280;62320;51.520;6.818;2024-01-25T14:12:22;102316.81;;;8.81;100.00
4528;BME280;62320;51.520;6.818;2024-01-25T14:22:24;102304.78;;;8.82;100.00
4528;BME280;62320;51.520;6.818;2024-01-25T14:32:33;102277.38;;;8.85;100.00
4528;BME280;62320;51.520;6.818;2024-01-25T14:42:35;102265.41;;;8.87;100.00
4528;BME280;62320;51.520;6.818;2024-01-25T14:52:39;102250.81;;;8.88;100.00
4528;BME280;62320;51.520;6.818;2024-01-25T15:02:40;102236.28;;;8.91;100.00
4528;BME280;62320;51.520;6.818;2024-01-25T15:12:42;102226.91;;;8.93;100.00
4528;BME280;62320;51.520;6.818;2024-01-25T15:22:43;102214.97;;;8.97;100.00
4528;BME280;62320;51.520;6.818;2024-01-25T15:32:45;102208.16;;;8.99;100.00
4528;BME280;62320;51.520;6.818;2024-01-25T15:42:48;102190.03;;;8.97;100.00
4528;BME280;62320;51.520;6.818;2024-01-25T15:52:55;102184.84;;;8.96;100.00
4528;BME280;62320;51.520;6.818;2024-01-25T16:02:56;102179.72;;;8.97;100.00
4528;BME280;62320;51.520;6.818;2024-01-25T16:12:58;102182.28;;;8.97;100.00
4528;BME280;62320;51.520;6.818;2024-01-25T16:23:00;102179.72;;;8.97;100.00
4528;BME280;62320;51.520;6.818;2024-01-25T16:33:01;102177.22;;;9.00;100.00
4528;BME280;62320;51.520;6.818;2024-01-25T16:43:03;102172.91;;;8.99;100.00
4528;BME280;62320;51.520;6.818;2024-01-25T16:53:04;102165.22;;;9.01;100.00
4528;BME280;62320;51.520;6.818;2024-01-25T17:03:06;102164.38;;;9.02;100.00
4528;BME280;62320;51.520;6.818;2024-01-25T17:13:08;102151.31;;;8.97;100.00
4528;BME280;62320;51.520;6.818;2024-01-25T17:23:09;102156.56;;;8.99;100.00
4528;BME280;62320;51.520;6.818;2024-01-25T17:33:10;102144.47;;;8.98;100.00
4528;BME280;62320;51.520;6.818;2024-01-25T17:43:12;102145.44;;;9.01;100.00
4528;BME280;62320;51.520;6.818;2024-01-25T17:53:25;102145.38;;;9.00;100.00
4528;BME280;62320;51.520;6.818;2024-01-25T18:03:27;102148.97;;;9.05;100.00
4528;BME280;62320;51.520;6.818;2024-01-25T18:13:29;102143.66;;;8.99;100.00
4528;BME280;62320;51.520;6.818;2024-01-25T18:23:31;102146.03;;;8.93;100.00
4528;BME280;62320;51.520;6.818;2024-01-25T18:33:33;102139.06;;;8.89;100.00
4528;BME280;62320;51.520;6.818;2024-01-25T18:43:37;102129.63;;;8.89;100.00
4528;BME280;62320;51.520;6.818;2024-01-25T18:53:38;102122.56;;;8.84;100.00
4528;BME280;62320;51.520;6.818;2024-01-25T19:03:40;102112.19;;;8.81;100.00
4528;BME280;62320;51.520;6.818;2024-01-25T19:13:42;102098.78;;;8.64;100.00
4528;BME280;62320;51.520;6.818;2024-01-25T19:23:43;102097.31;;;8.72;100.00
4528;BME280;62320;51.520;6.818;2024-01-25T19:33:45;102089.50;;;8.69;100.00
4528;BME280;62320;51.520;6.818;2024-01-25T19:43:46;102095.72;;;8.77;100.00
4528;BME280;62320;51.520;6.818;2024-01-25T19:53:48;102080.97;;;8.72;100.00
4528;BME280;62320;51.520;6.818;2024-01-25T20:03:50;102075.84;;;8.73;100.00
4528;BME280;62320;51.520;6.818;2024-01-25T20:13:52;102072.56;;;8.79;100.00
4528;BME280;62320;51.520;6.818;2024-01-25T20:23:54;102054.91;;;8.92;100.00
4528;BME280;62320;51.520;6.818;2024-01-25T20:33:56;102051.53;;;8.95;100.00
4528;BME280;62320;51.520;6.818;2024-01-25T20:43:57;102033.41;;;8.93;100.00
4528;BME280;62320;51.520;6.818;2024-01-25T20:53:59;102035.97;;;8.92;100.00
4528;BME280;62320;51.520;6.818;2024-01-25T21:04:05;102028.50;;;9.02;100.00
4528;BME280;62320;51.520;6.818;2024-01-25T21:14:07;102018.25;;;9.04;100.00
4528;BME280;62320;51.520;6.818;2024-01-25T21:24:08;101996.06;;;9.10;100.00
4528;BME280;62320;51.520;6.818;2024-01-25T21:34:10;101979.72;;;9.11;100.00
4528;BME280;62320;51.520;6.818;2024-01-25T21:44:13;101966.03;;;9.15;100.00
4528;BME280;62320;51.520;6.818;2024-01-25T21:54:14;101948.88;;;9.16;100.00
4528;BME280;62320;51.520;6.818;2024-01-25T22:04:16;101953.34;;;9.23;100.00
4528;BME280;62320;51.520;6.818;2024-01-25T22:14:18;101956.09;;;9.29;100.00
4528;BME280;62320;51.520;6.818;2024-01-25T22:24:19;101953.53;;;9.30;100.00
4528;BME280;62320;51.520;6.818;2024-01-25T22:34:21;101954.59;;;9.39;100.00
4528;BME280;62320;51.520;6.818;2024-01-25T22:44:22;101947.00;;;9.45;100.00
4528;BME280;62320;51.520;6.818;2024-01-25T22:54:24;101943.47;;;9.41;100.00
4528;BME280;62320;51.520;6.818;2024-01-25T23:04:25;101947.81;;;9.44;100.00
4528;BME280;62320;51.520;6.818;2024-01-25T23:14:27;101941.88;;;9.48;100.00
4528;BME280;62320;51.520;6.818;2024-01-25T23:24:28;101936.91;;;9.55;100.00
4528;BME280;62320;51.520;6.818;2024-01-25T23:34:30;101935.25;;;9.59;100.00
4528;BME280;62320;51.520;6.818;2024-01-25T23:44:33;101912.00;;;9.57;100.00
4528;BME280;62320;51.520;6.818;2024-01-25T23:54:35;101912.88;;;9.58;100.00
